Time;durP1;ratioP1;P1;durP2;ratioP2;P2;SDS_P1;SDS_P2;PMS_P1;PMS_P2;Temp;Humidity;BMP_temperature;BMP_pressure;BME280_temperature;BME280_humidity;BME280_pressure;Samples;Min_cycle;Max_cycle;Signal;HPM_P1;HPM_P2
2023/04/13 00:00:47;;;;;;;17.88;14.55;;;7.90;99.90;;;;;;4889163;29;20087;-63
2023/04/13 00:03:15;;;;;;;16.35;14.63;;;8.00;99.90;;;;;;4888577;29;20080;-64
2023/04/13 00:05:50;;;;;;;15.02;13.43;;;7.90;99.90;;;;;;4892322;29;20045;-65
2023/04/13 00:08:21;;;;;;;17.90;13.90;;;7.90;99.90;;;;;;4888863;29;20518;-63
2023/04/13 00:10:49;;;;;;;17.58;14.68;;;8.00;99.90;;;;;;4891600;29;20087;-64
2023/04/13 00:13:17;;;;;;;16.35;14.10;;;8.00;99.90;;;;;;4887930;29;20052;-63
2023/04/13 00:15:45;;;;;;;17.52;14.07;;;7.90;99.90;;;;;;4890905;29;20470;-63
2023/04/13 00:18:11;;;;;;;19.88;14.27;;;7.90;99.90;;;;;;4885773;29;20052;-64
2023/04/13 00:20:40;;;;;;;17.00;14.77;;;7.90;99.90;;;;;;4888419;29;20053;-62
2023/04/13 00:23:07;;;;;;;19.65;16.40;;;7.90;99.90;;;;;;4891355;29;20052;-62
2023/04/13 00:25:34;;;;;;;21.17;16.33;;;7.90;99.90;;;;;;4888532;29;20167;-63
2023/04/13 00:28:02;;;;;;;16.65;14.70;;;7.90;99.90;;;;;;4882864;29;20571;-63
2023/04/13 00:30:29;;;;;;;16.50;14.25;;;7.90;99.90;;;;;;4869582;29;20112;-62
2023/04/13 00:32:56;;;;;;;20.20;15.98;;;7.90;99.90;;;;;;4888487;29;20662;-62
2023/04/13 00:35:26;;;;;;;17.45;15.23;;;7.80;99.90;;;;;;4887027;29;20052;-64
2023/04/13 00:37:53;;;;;;;23.33;15.25;;;7.80;99.90;;;;;;4889279;29;20403;-65
2023/04/13 00:40:23;;;;;;;20.83;15.95;;;7.80;99.90;;;;;;4893374;29;20495;-63
2023/04/13 00:42:51;;;;;;;17.48;15.20;;;7.80;99.90;;;;;;4893000;29;20045;-63
2023/04/13 00:45:18;;;;;;;25.67;16.98;;;7.80;99.90;;;;;;4893775;29;20049;-64
2023/04/13 00:47:47;;;;;;;20.35;16.52;;;7.80;99.90;;;;;;4892057;29;20068;-63
2023/04/13 00:50:17;;;;;;;18.58;16.38;;;7.80;99.90;;;;;;4887869;29;20108;-64
2023/04/13 00:52:46;;;;;;;17.88;15.23;;;7.80;99.90;;;;;;4894354;29;20079;-62
2023/04/13 00:55:13;;;;;;;17.52;15.45;;;7.80;99.90;;;;;;4892771;29;20139;-62
2023/04/13 00:57:40;;;;;;;21.20;16.92;;;7.70;99.90;;;;;;4890039;29;20081;-64
2023/04/13 01:00:08;;;;;;;18.75;14.57;;;7.70;99.90;;;;;;4891326;29;20049;-65
2023/04/13 01:02:40;;;;;;;18.95;16.92;;;7.70;99.90;;;;;;4880192;29;20096;-63
2023/04/13 01:05:15;;;;;;;18.85;16.25;;;7.70;99.90;;;;;;4891456;29;20056;-64
2023/04/13 01:08:01;;;;;;;20.75;15.20;;;7.70;99.90;;;;;;4891895;29;20066;-64
2023/04/13 01:10:43;;;;;;;19.40;17.20;;;7.70;99.90;;;;;;4886559;29;20052;-62
2023/04/13 01:13:48;;;;;;;18.70;15.18;;;7.60;99.90;;;;;;4889986;29;20506;-67
2023/04/13 01:16:31;;;;;;;18.92;17.08;;;7.60;99.90;;;;;;4869695;29;20081;-67
2023/04/13 01:19:04;;;;;;;18.23;16.52;;;7.60;99.90;;;;;;4885967;29;20059;-64
2023/04/13 01:21:32;;;;;;;19.50;15.77;;;7.50;99.90;;;;;;4890817;29;20063;-62
2023/04/13 01:24:32;;;;;;;17.48;15.65;;;7.50;99.90;;;;;;4890120;29;20052;-62
2023/04/13 01:27:14;;;;;;;19.95;17.77;;;7.50;99.90;;;;;;4890723;29;20071;-62
2023/04/13 01:29:45;;;;;;;18.27;16.13;;;7.50;99.90;;;;;;4886300;29;20076;-67
2023/04/13 01:32:15;;;;;;;17.23;15.45;;;7.50;99.90;;;;;;4888059;29;20040;-62
2023/04/13 01:34:42;;;;;;;19.40;17.08;;;7.50;99.90;;;;;;4888064;29;20064;-66
2023/04/13 01:37:09;;;;;;;18.98;16.55;;;7.50;99.90;;;;;;4889654;29;20140;-62
2023/04/13 01:39:37;;;;;;;17.95;15.20;;;7.60;99.90;;;;;;4873223;29;20064;-63
2023/04/13 01:42:14;;;;;;;19.70;16.40;;;7.50;99.90;;;;;;4884127;29;20040;-64
2023/04/13 01:44:42;;;;;;;17.92;16.02;;;7.50;99.90;;;;;;4890813;29;20411;-65
2023/04/13 01:47:17;;;;;;;21.27;16.60;;;7.50;99.90;;;;;;4888070;29;20128;-64
2023/04/13 01:50:13;;;;;;;16.95;15.23;;;7.50;99.90;;;;;;4888027;29;20056;-63
2023/04/13 01:52:52;;;;;;;19.00;17.08;;;7.50;99.90;;;;;;4874358;29;20060;-65
2023/04/13 01:55:22;;;;;;;19.02;16.30;;;7.50;99.90;;;;;;4886373;29;20052;-63
2023/04/13 01:57:55;;;;;;;20.60;18.33;;;7.50;99.90;;;;;;4884459;29;20132;-64
2023/04/13 02:00:30;;;;;;;22.13;16.80;;;7.50;99.90;;;;;;4888373;29;20503;-65
2023/04/13 02:02:57;;;;;;;19.20;16.20;;;7.40;99.90;;;;;;4873630;29;20578;-63
2023/04/13 02:05:26;;;;;;;26.35;17.70;;;7.50;99.90;;;;;;4879784;29;20790;-65
2023/04/13 02:07:53;;;;;;;18.33;16.38;;;7.50;99.90;;;;;;4891857;29;20449;-62
2023/04/13 02:10:21;;;;;;;18.33;16.20;;;7.50;99.90;;;;;;4872313;29;20051;-62
2023/04/13 02:12:48;;;;;;;23.38;17.67;;;7.40;99.90;;;;;;4888030;29;20056;-62
2023/04/13 02:15:17;;;;;;;20.45;18.27;;;7.40;99.90;;;;;;4887807;29;20052;-63
2023/04/13 02:17:43;;;;;;;20.17;17.45;;;7.40;99.90;;;;;;4888993;29;20052;-63
2023/04/13 02:20:11;;;;;;;18.75;16.67;;;7.40;99.90;;;;;;4885952;29;20072;-64
2023/04/13 02:22:38;;;;;;;19.42;16.75;;;7.30;99.90;;;;;;4893755;29;20517;-63
2023/04/13 02:25:10;;;;;;;16.98;15.30;;;7.30;99.90;;;;;;4888854;29;20061;-63
2023/04/13 02:27:38;;;;;;;19.38;15.98;;;7.30;99.90;;;;;;4889929;29;20048;-65
2023/04/13 02:30:06;;;;;;;18.75;16.75;;;7.30;99.90;;;;;;4867060;29;20403;-63
2023/04/13 02:32:36;;;;;;;22.73;16.77;;;7.30;99.90;;;;;;4889616;29;20698;-68
2023/04/13 02:35:03;;;;;;;19.23;16.17;;;7.30;99.90;;;;;;4887867;29;20147;-66
2023/04/13 02:37:31;;;;;;;19.15;16.40;;;7.30;99.90;;;;;;4878318;29;20052;-64
2023/04/13 02:39:58;;;;;;;20.35;18.23;;;7.30;99.90;;;;;;4885637;29;20036;-62
2023/04/13 02:42:26;;;;;;;19.27;17.40;;;7.30;99.90;;;;;;4885812;29;20075;-62
2023/04/13 02:44:54;;;;;;;23.23;17.23;;;7.30;99.90;;;;;;4874139;29;20060;-65
2023/04/13 02:47:21;;;;;;;25.63;17.83;;;7.30;99.90;;;;;;4890591;29;20052;-63
2023/04/13 02:49:48;;;;;;;19.15;16.60;;;7.30;99.90;;;;;;4873748;29;20056;-67
2023/04/13 02:52:26;;;;;;;27.98;18.73;;;7.30;99.90;;;;;;4875245;29;20052;-62
2023/04/13 02:55:00;;;;;;;20.75;16.00;;;7.30;99.90;;;;;;4886072;29;20408;-62
2023/04/13 02:57:34;;;;;;;24.20;17.48;;;7.30;99.90;;;;;;4884526;29;20087;-64
2023/04/13 03:00:10;;;;;;;19.65;17.52;;;7.20;99.90;;;;;;4885647;29;20060;-63
2023/04/13 03:02:46;;;;;;;20.35;16.83;;;7.20;99.90;;;;;;4884892;29;20048;-66
2023/04/13 03:05:15;;;;;;;19.98;16.67;;;7.20;99.90;;;;;;4884312;29;20704;-63
2023/04/13 03:07:42;;;;;;;19.38;17.15;;;7.20;99.90;;;;;;4887752;29;20116;-62
2023/04/13 03:10:09;;;;;;;19.75;17.75;;;7.20;99.90;;;;;;4891585;29;20495;-64
2023/04/13 03:12:36;;;;;;;19.67;16.27;;;7.20;99.90;;;;;;4874809;29;20052;-65
2023/04/13 03:15:09;;;;;;;17.67;15.63;;;7.20;99.90;;;;;;4884385;29;20147;-61
2023/04/13 03:17:42;;;;;;;23.23;17.45;;;7.20;99.90;;;;;;4888275;29;20060;-63
2023/04/13 03:20:15;;;;;;;21.80;18.02;;;7.30;99.90;;;;;;4880510;29;20419;-63
2023/04/13 03:22:52;;;;;;;20.23;16.75;;;7.30;99.90;;;;;;4887227;29;20108;-63
2023/04/13 03:25:20;;;;;;;18.55;16.40;;;7.30;99.90;;;;;;4890404;29;20079;-61
2023/04/13 03:27:47;;;;;;;20.25;17.52;;;7.30;99.90;;;;;;4868121;29;20140;-62
2023/04/13 03:30:17;;;;;;;23.15;17.92;;;7.30;99.90;;;;;;4884996;29;20052;-63
2023/04/13 03:32:57;;;;;;;18.95;16.80;;;7.30;99.90;;;;;;4874631;29;20052;-63
2023/04/13 03:35:27;;;;;;;19.45;17.17;;;7.30;99.90;;;;;;4885189;29;20857;-63
2023/04/13 03:37:56;;;;;;;18.73;16.73;;;7.30;99.90;;;;;;4889272;29;20503;-65
2023/04/13 03:40:30;;;;;;;20.40;17.05;;;7.30;99.90;;;;;;4886365;29;20720;-62
2023/04/13 03:42:57;;;;;;;21.55;17.15;;;7.20;99.90;;;;;;4887850;29;20088;-62
2023/04/13 03:45:26;;;;;;;19.27;15.73;;;7.30;99.90;;;;;;4889727;29;20111;-63
2023/04/13 03:47:57;;;;;;;24.80;17.25;;;7.30;99.90;;;;;;4873886;29;20052;-67
2023/04/13 03:50:25;;;;;;;18.92;15.45;;;7.30;99.90;;;;;;4869658;29;20131;-62
2023/04/13 03:52:52;;;;;;;20.85;16.90;;;7.30;99.90;;;;;;4886345;29;20101;-64
2023/04/13 03:55:20;;;;;;;18.65;16.65;;;7.30;99.90;;;;;;4886708;29;20048;-64
2023/04/13 03:57:49;;;;;;;19.17;16.10;;;7.30;99.90;;;;;;4873484;29;20119;-64
2023/04/13 04:00:20;;;;;;;25.17;16.85;;;7.30;99.90;;;;;;4868234;29;20132;-64
2023/04/13 04:03:05;;;;;;;20.27;16.70;;;7.30;99.90;;;;;;4886912;29;20097;-63
2023/04/13 04:05:43;;;;;;;21.92;16.95;;;7.30;99.90;;;;;;4884160;29;20104;-62
2023/04/13 04:08:10;;;;;;;26.63;17.98;;;7.40;99.90;;;;;;4888031;29;20171;-64
2023/04/13 04:10:37;;;;;;;18.90;17.00;;;7.30;99.90;;;;;;4865579;29;20052;-62
2023/04/13 04:13:04;;;;;;;24.38;16.35;;;7.30;99.90;;;;;;4884848;29;20139;-63
2023/04/13 04:15:34;;;;;;;19.20;17.15;;;7.30;99.90;;;;;;4886537;29;20064;-62
2023/04/13 04:18:05;;;;;;;18.55;16.23;;;7.30;99.90;;;;;;4878451;29;20051;-64
2023/04/13 04:20:36;;;;;;;22.52;17.58;;;7.40;99.90;;;;;;4890951;29;20123;-63
2023/04/13 04:23:04;;;;;;;21.13;17.90;;;7.40;99.90;;;;;;4890148;29;20063;-62
2023/04/13 04:25:40;;;;;;;21.02;16.58;;;7.40;99.90;;;;;;4871915;29;20518;-63
2023/04/13 04:28:07;;;;;;;20.90;17.13;;;7.40;99.90;;;;;;4889259;29;20058;-64
2023/04/13 04:30:34;;;;;;;17.25;15.60;;;7.40;99.90;;;;;;4873841;29;20056;-65
2023/04/13 04:33:03;;;;;;;19.23;16.23;;;7.40;99.90;;;;;;4873912;29;20502;-63
2023/04/13 04:35:34;;;;;;;20.08;17.98;;;7.40;99.90;;;;;;4888877;29;20047;-63
2023/04/13 04:38:05;;;;;;;22.88;18.40;;;7.40;99.90;;;;;;4876708;29;20056;-62
2023/04/13 04:40:34;;;;;;;21.92;16.95;;;7.40;99.90;;;;;;4893639;29;20079;-63
2023/04/13 04:43:04;;;;;;;26.58;18.25;;;7.40;99.90;;;;;;4888414;29;20139;-65
2023/04/13 04:45:42;;;;;;;33.97;18.20;;;7.40;99.90;;;;;;4891240;29;20057;-64
2023/04/13 04:48:12;;;;;;;20.40;18.30;;;7.40;99.90;;;;;;4883831;29;20067;-66
2023/04/13 04:50:43;;;;;;;21.65;17.85;;;7.40;99.90;;;;;;4890857;29;20091;-65
2023/04/13 04:53:13;;;;;;;20.10;15.60;;;7.40;99.90;;;;;;4884457;29;20445;-66
2023/04/13 04:55:40;;;;;;;19.60;17.38;;;7.40;99.90;;;;;;4875107;29;20055;-63
2023/04/13 04:58:12;;;;;;;19.70;17.05;;;7.40;99.90;;;;;;4885622;29;20183;-63
2023/04/13 05:00:46;;;;;;;19.42;16.58;;;7.50;99.90;;;;;;4887996;29;20389;-69
2023/04/13 05:03:15;;;;;;;22.15;17.25;;;7.50;99.90;;;;;;4885840;29;20163;-63
2023/04/13 05:05:47;;;;;;;24.23;18.10;;;7.50;99.90;;;;;;4888533;29;20053;-63
2023/04/13 05:08:20;;;;;;;21.70;16.00;;;7.50;99.90;;;;;;4888546;29;20056;-66
2023/04/13 05:10:49;;;;;;;18.75;16.75;;;7.60;99.90;;;;;;4891268;29;20116;-62
2023/04/13 05:13:17;;;;;;;20.90;18.17;;;7.60;99.90;;;;;;4885814;29;20057;-63
2023/04/13 05:15:54;;;;;;;25.58;18.77;;;7.70;99.90;;;;;;4890779;29;20052;-69
2023/04/13 05:18:21;;;;;;;22.05;16.77;;;7.70;99.90;;;;;;4886110;29;20932;-63
2023/04/13 05:20:48;;;;;;;20.77;17.02;;;7.70;99.90;;;;;;4885826;29;20063;-63
2023/04/13 05:23:15;;;;;;;21.58;17.90;;;7.70;99.90;;;;;;4885379;29;20049;-61
2023/04/13 05:25:50;;;;;;;21.02;17.55;;;7.70;99.90;;;;;;4887515;29;20054;-62
2023/04/13 05:28:20;;;;;;;23.65;17.40;;;7.70;99.90;;;;;;4885054;29;20083;-63
2023/04/13 05:30:47;;;;;;;30.52;16.73;;;7.60;99.90;;;;;;4869596;29;20052;-64
2023/04/13 05:33:15;;;;;;;16.95;15.23;;;7.70;99.90;;;;;;4887448;29;20943;-62
2023/04/13 05:35:43;;;;;;;21.63;16.77;;;7.60;99.90;;;;;;4887568;29;20134;-63
2023/04/13 05:38:10;;;;;;;26.52;15.55;;;7.60;99.90;;;;;;4888049;29;20511;-63
2023/04/13 05:40:39;;;;;;;33.15;18.33;;;7.60;99.90;;;;;;4888642;29;20068;-62
2023/04/13 05:43:06;;;;;;;19.77;17.70;;;7.70;99.90;;;;;;4887772;29;20084;-66
2023/04/13 05:45:38;;;;;;;22.35;18.15;;;7.60;99.90;;;;;;4871912;29;20044;-63
2023/04/13 05:48:12;;;;;;;26.85;17.42;;;7.60;99.90;;;;;;4885516;29;20476;-62
2023/04/13 05:50:42;;;;;;;25.52;17.88;;;7.70;99.90;;;;;;4874209;29;20049;-62
2023/04/13 05:53:10;;;;;;;33.33;19.83;;;7.70;99.90;;;;;;4887197;29;20049;-62
2023/04/13 05:55:45;;;;;;;26.90;18.92;;;7.70;99.90;;;;;;4876122;29;20056;-63
2023/04/13 05:58:14;;;;;;;29.63;21.38;;;7.70;99.90;;;;;;4886348;29;20144;-62
2023/04/13 06:00:42;;;;;;;27.10;19.48;;;7.70;99.90;;;;;;4872491;29;20119;-62
2023/04/13 06:03:14;;;;;;;;;;;7.70;99.90;;;;;;4886801;29;20053;-62
2023/04/13 06:05:42;;;;;;;27.58;19.02;;;7.70;99.90;;;;;;4884454;29;19952;-62
2023/04/13 06:08:09;;;;;;;33.55;19.67;;;7.70;99.90;;;;;;4885216;29;20056;-64
2023/04/13 06:10:37;;;;;;;30.05;20.70;;;7.80;99.90;;;;;;4870389;29;20049;-64
2023/04/13 06:13:04;;;;;;;28.83;20.20;;;7.80;99.90;;;;;;4886435;29;20056;-63
2023/04/13 06:15:35;;;;;;;25.38;20.50;;;7.90;99.90;;;;;;4886483;29;20063;-63
2023/04/13 06:18:01;;;;;;;30.00;23.15;;;7.90;99.90;;;;;;4886238;29;20057;-62
2023/04/13 06:20:30;;;;;;;28.10;22.75;;;8.00;99.90;;;;;;4887261;29;20059;-62
2023/04/13 06:22:57;;;;;;;46.95;23.67;;;8.00;99.90;;;;;;4886762;29;20562;-64
2023/04/13 06:25:24;;;;;;;30.88;21.85;;;8.10;99.90;;;;;;4872897;29;20084;-62
2023/04/13 06:27:51;;;;;;;38.80;23.75;;;8.20;99.90;;;;;;4883371;29;20064;-63
2023/04/13 06:30:19;;;;;;;32.15;23.83;;;8.20;99.90;;;;;;4887212;29;20512;-64
2023/04/13 06:32:50;;;;;;;28.48;22.17;;;8.30;99.90;;;;;;4887113;29;20063;-62
2023/04/13 06:35:20;;;;;;;29.55;23.30;;;8.30;99.90;;;;;;4877325;29;20392;-62
2023/04/13 06:37:48;;;;;;;26.88;23.88;;;8.30;99.90;;;;;;4865742;29;20055;-64
2023/04/13 06:40:22;;;;;;;29.98;25.70;;;8.40;99.90;;;;;;4881627;29;20052;-61
2023/04/13 06:43:02;;;;;;;34.33;28.15;;;8.40;99.90;;;;;;4883853;29;20060;-62
2023/04/13 06:45:37;;;;;;;36.08;25.98;;;8.50;99.90;;;;;;4889229;29;20232;-62
2023/04/13 06:48:07;;;;;;;30.70;26.33;;;8.50;99.90;;;;;;4886999;29;20057;-62
2023/04/13 06:50:37;;;;;;;36.80;26.45;;;8.50;99.90;;;;;;4868548;29;20100;-62
2023/04/13 06:53:06;;;;;;;30.48;24.85;;;8.60;99.90;;;;;;4884839;29;20589;-64
2023/04/13 06:55:33;;;;;;;37.33;27.77;;;8.70;99.90;;;;;;4871357;29;20061;-62
2023/04/13 06:58:00;;;;;;;30.33;24.20;;;8.80;99.90;;;;;;4872137;29;20121;-61
2023/04/13 07:00:27;;;;;;;35.97;23.60;;;8.90;99.90;;;;;;4888316;29;20145;-62
2023/04/13 07:02:58;;;;;;;183.00;41.78;;;9.00;99.90;;;;;;4884356;29;20496;-62
2023/04/13 07:05:25;;;;;;;43.17;25.80;;;9.20;99.90;;;;;;4884634;29;20143;-65
2023/04/13 07:07:57;;;;;;;35.75;25.00;;;9.30;99.90;;;;;;4872277;29;20108;-63
2023/04/13 07:10:24;;;;;;;29.92;24.35;;;9.40;99.90;;;;;;4869745;29;20108;-62
2023/04/13 07:12:53;;;;;;;40.63;24.95;;;9.50;99.90;;;;;;4870358;29;20049;-62
2023/04/13 07:15:23;;;;;;;22.88;20.42;;;9.50;99.90;;;;;;4885932;29;20053;-62
2023/04/13 07:17:51;;;;;;;23.33;19.45;;;9.60;99.90;;;;;;4886200;29;20120;-60
2023/04/13 07:20:18;;;;;;;27.55;19.15;;;9.70;99.90;;;;;;4886231;29;20376;-62
2023/04/13 07:22:46;;;;;;;24.08;18.17;;;9.80;99.90;;;;;;4888826;29;20053;-66
2023/04/13 07:25:13;;;;;;;25.65;17.27;;;9.90;99.90;;;;;;4886451;29;20071;-63
2023/04/13 07:27:40;;;;;;;20.42;15.10;;;9.90;99.90;;;;;;4871317;29;20140;-63
2023/04/13 07:30:07;;;;;;;29.42;16.27;;;10.00;99.90;;;;;;4868950;29;20172;-62
2023/04/13 07:32:39;;;;;;;17.35;15.60;;;10.10;99.90;;;;;;4883739;29;20052;-61
2023/04/13 07:35:08;;;;;;;15.75;14.02;;;10.20;99.90;;;;;;4883732;29;20204;-62
2023/04/13 07:37:36;;;;;;;20.95;14.18;;;10.30;99.90;;;;;;4885385;29;20044;-62
2023/04/13 07:40:05;;;;;;;16.67;12.05;;;10.40;99.90;;;;;;4882836;29;20056;-62
2023/04/13 07:42:32;;;;;;;18.45;12.63;;;10.50;99.90;;;;;;4885234;29;20060;-61
2023/04/13 07:44:59;;;;;;;25.40;14.90;;;10.60;99.90;;;;;;4886261;29;20601;-63
2023/04/13 07:47:28;;;;;;;13.77;11.88;;;10.70;99.90;;;;;;4869772;29;20060;-61
2023/04/13 07:50:01;;;;;;;19.13;14.02;;;10.80;99.90;;;;;;4864297;29;20376;-61
2023/04/13 07:52:28;;;;;;;20.17;12.43;;;10.90;99.90;;;;;;4887266;29;20122;-62
2023/04/13 07:54:55;;;;;;;18.48;12.60;;;11.00;99.90;;;;;;4884779;29;20060;-63
2023/04/13 07:57:23;;;;;;;39.33;14.65;;;11.00;99.90;;;;;;4883071;29;20063;-63
2023/04/13 07:59:55;;;;;;;28.05;15.38;;;11.00;99.90;;;;;;4884800;29;20057;-63
2023/04/13 08:02:23;;;;;;;21.17;13.55;;;11.10;99.90;;;;;;4868444;29;20063;-64
2023/04/13 08:04:53;;;;;;;17.70;12.32;;;11.30;99.90;;;;;;4883785;29;20071;-61
2023/04/13 08:07:26;;;;;;;15.15;11.30;;;11.40;99.90;;;;;;4884852;29;20072;-65
2023/04/13 08:09:53;;;;;;;17.00;11.50;;;11.40;99.90;;;;;;4887410;29;20074;-61
2023/04/13 08:12:21;;;;;;;13.88;11.30;;;11.60;99.90;;;;;;4880069;29;20059;-62
2023/04/13 08:14:50;;;;;;;12.65;11.30;;;11.70;99.90;;;;;;4869271;29;20101;-61
2023/04/13 08:17:17;;;;;;;15.30;11.27;;;11.90;99.90;;;;;;4885181;29;20434;-61
2023/04/13 08:19:44;;;;;;;17.00;12.20;;;12.20;99.90;;;;;;4867671;29;20403;-64
2023/04/13 08:22:13;;;;;;;24.63;12.82;;;12.40;99.90;;;;;;4884320;29;20243;-62
2023/04/13 08:24:41;;;;;;;24.25;11.18;;;12.60;99.90;;;;;;4879250;29;20057;-61
2023/04/13 08:27:08;;;;;;;34.30;12.13;;;12.60;99.90;;;;;;4883109;29;20056;-63
2023/04/13 08:29:36;;;;;;;14.57;10.65;;;12.70;99.90;;;;;;4867332;29;20179;-62
2023/04/13 08:32:03;;;;;;;28.98;10.50;;;12.70;99.90;;;;;;4883051;29;20052;-61
2023/04/13 08:34:31;;;;;;;13.90;9.23;;;12.70;99.90;;;;;;4880679;29;20052;-62
2023/04/13 08:36:57;;;;;;;21.17;9.63;;;12.60;99.90;;;;;;4884697;29;20049;-62
2023/04/13 08:39:28;;;;;;;28.15;11.73;;;12.60;99.90;;;;;;4870850;29;20060;-61
2023/04/13 08:41:55;;;;;;;17.20;10.00;;;12.60;99.90;;;;;;4869269;29;20499;-62
2023/04/13 08:44:26;;;;;;;17.80;9.18;;;12.70;99.90;;;;;;4880941;29;20053;-63
2023/04/13 08:46:53;;;;;;;11.68;8.70;;;12.70;99.90;;;;;;4886288;29;20075;-61
2023/04/13 08:49:26;;;;;;;23.88;10.85;;;12.80;99.90;;;;;;4882908;29;20061;-61
2023/04/13 08:52:10;;;;;;;20.67;10.38;;;12.90;99.90;;;;;;4859986;29;20052;-60
2023/04/13 08:54:39;;;;;;;11.80;8.90;;;12.80;99.90;;;;;;4885526;29;20140;-61
2023/04/13 08:57:15;;;;;;;24.05;10.48;;;12.80;99.90;;;;;;4866488;29;20394;-60
2023/04/13 08:59:43;;;;;;;21.98;9.85;;;12.80;99.90;;;;;;4886543;29;20135;-61
2023/04/13 09:02:11;;;;;;;24.20;10.32;;;12.90;99.90;;;;;;4881683;29;20061;-61
2023/04/13 09:04:52;;;;;;;25.55;10.13;;;13.00;99.90;;;;;;4875823;29;20048;-63
2023/04/13 09:07:26;;;;;;;18.58;8.98;;;13.10;99.90;;;;;;4870107;29;20055;-61
2023/04/13 09:09:59;;;;;;;28.92;9.40;;;13.10;99.90;;;;;;4881992;29;20067;-61
2023/04/13 09:12:28;;;;;;;18.50;9.57;;;13.10;99.90;;;;;;4888138;29;20072;-61
2023/04/13 09:14:55;;;;;;;15.02;8.68;;;13.20;99.90;;;;;;4888736;29;20052;-60
2023/04/13 09:17:29;;;;;;;25.50;10.30;;;13.20;99.90;;;;;;4886082;29;20049;-59
2023/04/13 09:20:14;;;;;;;29.60;12.88;;;13.30;99.90;;;;;;4881435;29;20091;-63
2023/04/13 09:22:42;;;;;;;21.65;8.80;;;13.30;99.90;;;;;;4885179;29;20040;-61
2023/04/13 09:25:27;;;;;;;38.38;9.30;;;13.40;99.90;;;;;;4888370;29;20052;-60
2023/04/13 09:27:55;;;;;;;18.55;9.38;;;13.50;99.90;;;;;;4887045;29;20510;-60
2023/04/13 09:30:24;;;;;;;10.88;7.78;;;13.50;99.90;;;;;;4870054;29;20191;-61
2023/04/13 09:33:04;;;;;;;14.98;7.93;;;13.50;99.90;;;;;;4890416;29;20151;-61
2023/04/13 09:35:33;;;;;;;10.40;7.53;;;13.60;99.90;;;;;;4886277;29;20407;-60
2023/04/13 09:38:00;;;;;;;11.57;7.45;;;13.60;99.90;;;;;;4889031;29;20162;-60
2023/04/13 09:40:27;;;;;;;12.10;7.70;;;13.60;99.90;;;;;;4887378;29;20076;-61
2023/04/13 09:42:58;;;;;;;17.88;9.38;;;13.70;99.90;;;;;;4889090;29;20135;-62
2023/04/13 09:45:39;;;;;;;15.45;7.88;;;13.80;99.90;;;;;;4887577;29;20048;-64
2023/04/13 09:48:20;;;;;;;14.30;7.32;;;14.00;99.90;;;;;;4888228;29;20103;-61
2023/04/13 09:50:58;;;;;;;;;;;14.10;99.90;;;;;;4886635;29;20582;-64
2023/04/13 09:53:28;;;;;;;22.08;8.93;;;14.20;99.90;;;;;;4889164;29;20431;-62
2023/04/13 09:55:58;;;;;;;9.43;7.38;;;14.20;99.90;;;;;;4887130;29;20048;-64
2023/04/13 09:58:26;;;;;;;16.90;8.18;;;14.20;99.90;;;;;;4885608;29;20469;-61
2023/04/13 10:00:52;;;;;;;18.67;8.70;;;14.30;99.90;;;;;;4886313;29;20427;-62
2023/04/13 10:03:21;;;;;;;21.30;7.05;;;14.40;99.90;;;;;;4888397;29;20143;-64
2023/04/13 10:05:48;;;;;;;10.50;7.15;;;14.50;99.90;;;;;;4890878;29;20473;-62
2023/04/13 10:08:18;;;;;;;18.20;7.80;;;14.50;99.90;;;;;;4884047;29;20157;-62
2023/04/13 10:11:02;;;;;;;19.13;8.07;;;14.60;99.90;;;;;;4884583;29;20052;-60
2023/04/13 10:13:39;;;;;;;11.82;7.32;;;14.50;99.90;;;;;;4889031;29;20048;-61
2023/04/13 10:16:15;;;;;;;30.05;10.45;;;14.50;99.90;;;;;;4887548;29;20052;-61
2023/04/13 10:18:49;;;;;;;11.32;7.05;;;14.60;99.90;;;;;;4889964;29;20530;-62
2023/04/13 10:21:17;;;;;;;14.07;6.25;;;14.60;99.90;;;;;;4887920;29;20052;-64
2023/04/13 10:23:44;;;;;;;15.82;8.00;;;14.70;99.90;;;;;;4886614;29;20415;-63
2023/04/13 10:26:11;;;;;;;20.88;7.53;;;14.90;99.90;;;;;;4887340;29;20044;-63
2023/04/13 10:28:46;;;;;;;25.45;8.70;;;15.00;99.90;;;;;;4886881;29;20059;-62
2023/04/13 10:31:13;;;;;;;14.10;8.50;;;15.00;99.90;;;;;;4887724;29;20052;-62
2023/04/13 10:33:47;;;;;;;17.77;7.80;;;15.00;99.90;;;;;;4888571;29;20166;-61
2023/04/13 10:36:14;;;;;;;17.83;7.70;;;14.90;99.90;;;;;;4884381;29;20078;-61
2023/04/13 10:38:43;;;;;;;14.63;7.68;;;14.90;99.90;;;;;;4889075;29;20128;-61
2023/04/13 10:41:09;;;;;;;18.15;9.05;;;14.80;99.90;;;;;;4888390;29;20056;-62
2023/04/13 10:43:36;;;;;;;20.73;8.45;;;14.70;99.90;;;;;;4887904;29;20102;-62
2023/04/13 10:46:08;;;;;;;21.58;7.57;;;14.90;99.90;;;;;;4884069;29;20052;-61
2023/04/13 10:48:36;;;;;;;11.68;6.10;;;14.90;99.90;;;;;;4888371;29;20048;-63
2023/04/13 10:51:03;;;;;;;14.30;6.43;;;14.90;99.90;;;;;;4888360;29;20040;-61
2023/04/13 10:53:31;;;;;;;15.45;6.07;;;15.10;99.90;;;;;;4886467;29;20143;-61
2023/04/13 10:55:59;;;;;;;15.23;9.18;;;15.20;99.90;;;;;;4888014;29;20079;-62
2023/04/13 10:58:28;;;;;;;13.23;7.57;;;15.20;99.90;;;;;;4868951;29;20100;-64
2023/04/13 11:00:58;;;;;;;14.38;7.63;;;15.10;99.90;;;;;;4886556;29;20120;-62
2023/04/13 11:03:27;;;;;;;15.73;7.55;;;15.10;99.90;;;;;;4886764;29;20406;-61
2023/04/13 11:05:56;;;;;;;12.15;6.20;;;15.10;99.90;;;;;;4886276;29;20067;-62
2023/04/13 11:08:23;;;;;;;13.77;7.27;;;14.90;99.90;;;;;;4887473;29;20057;-62
2023/04/13 11:10:54;;;;;;;11.63;7.30;;;14.80;99.90;;;;;;4888363;29;20056;-64
2023/04/13 11:13:25;;;;;;;8.27;7.25;;;14.60;99.90;;;;;;4887138;29;20079;-64
2023/04/13 11:16:01;;;;;;;12.20;7.03;;;14.50;99.90;;;;;;4886854;29;20056;-63
2023/04/13 11:18:28;;;;;;;9.25;6.75;;;14.30;99.90;;;;;;4886739;29;20048;-62
2023/04/13 11:20:55;;;;;;;20.08;6.88;;;14.10;99.90;;;;;;4884511;29;20054;-63
2023/04/13 11:23:22;;;;;;;10.38;6.97;;;13.90;99.90;;;;;;4888742;29;20048;-62
2023/04/13 11:25:53;;;;;;;8.30;6.80;;;13.70;99.90;;;;;;4888586;29;20104;-64
2023/04/13 11:28:22;;;;;;;12.95;7.45;;;13.70;99.90;;;;;;4888066;29;20431;-61
2023/04/13 11:30:55;;;;;;;17.95;7.75;;;13.60;99.90;;;;;;4890355;29;20072;-64
2023/04/13 11:33:26;;;;;;;12.00;7.05;;;13.50;99.90;;;;;;4878998;29;20048;-62
2023/04/13 11:35:55;;;;;;;15.57;8.07;;;13.50;99.90;;;;;;4885194;29;20072;-62
2023/04/13 11:38:23;;;;;;;16.40;8.40;;;13.40;99.90;;;;;;4886525;29;20058;-65
2023/04/13 11:40:51;;;;;;;12.73;8.20;;;13.40;99.90;;;;;;4886484;29;20063;-63
2023/04/13 11:43:33;;;;;;;9.23;6.93;;;13.40;99.90;;;;;;4888875;29;20063;-63
2023/04/13 11:46:01;;;;;;;13.70;7.95;;;13.50;99.90;;;;;;4888378;29;20049;-62
2023/04/13 11:48:28;;;;;;;11.90;6.65;;;13.30;99.90;;;;;;4887578;29;20128;-63
2023/04/13 11:50:56;;;;;;;16.08;8.52;;;13.20;99.90;;;;;;4885012;29;20441;-63
2023/04/13 11:53:24;;;;;;;17.00;9.32;;;13.30;99.90;;;;;;4886848;29;20151;-61
2023/04/13 11:55:51;;;;;;;35.88;7.53;;;13.30;99.90;;;;;;4887594;29;20063;-64
2023/04/13 11:58:20;;;;;;;12.70;8.00;;;13.20;99.90;;;;;;4888651;29;20059;-62
2023/04/13 12:00:47;;;;;;;19.90;8.90;;;13.10;99.90;;;;;;4887904;29;20119;-63
2023/04/13 12:03:18;;;;;;;13.60;8.32;;;13.00;99.90;;;;;;4890667;29;20107;-62
2023/04/13 12:05:48;;;;;;;14.35;7.72;;;13.00;99.90;;;;;;4887672;29;20139;-63
2023/04/13 12:08:22;;;;;;;12.35;7.72;;;13.10;99.90;;;;;;4881703;29;20053;-63
2023/04/13 12:10:56;;;;;;;22.98;8.75;;;13.30;99.90;;;;;;4886539;29;20044;-62
2023/04/13 12:13:46;;;;;;;14.95;8.15;;;13.60;99.90;;;;;;4890765;29;20049;-62
2023/04/13 12:16:35;;;;;;;14.68;7.93;;;13.70;99.90;;;;;;4883587;29;20049;-62
2023/04/13 12:19:25;;;;;;;15.45;8.50;;;13.80;99.90;;;;;;4883910;29;20064;-62
2023/04/13 12:21:54;;;;;;;11.50;8.30;;;13.90;99.90;;;;;;4885525;29;20454;-63
2023/04/13 12:24:49;;;;;;;13.40;8.98;;;14.00;99.90;;;;;;4876227;29;20053;-63
2023/04/13 12:27:17;;;;;;;19.48;8.98;;;14.10;99.90;;;;;;4880482;29;20526;-62
2023/04/13 12:29:45;;;;;;;13.80;8.38;;;14.10;99.90;;;;;;4888218;29;20476;-63
2023/04/13 12:32:13;;;;;;;17.25;8.40;;;13.90;99.90;;;;;;4884007;29;20050;-62
2023/04/13 12:34:42;;;;;;;12.07;7.57;;;13.70;99.90;;;;;;4889630;29;20048;-65
2023/04/13 12:37:11;;;;;;;19.05;9.32;;;13.60;99.90;;;;;;4889604;29;20056;-64
2023/04/13 12:39:38;;;;;;;12.00;8.75;;;13.40;99.90;;;;;;4891064;29;20054;-63
2023/04/13 12:42:05;;;;;;;15.02;8.30;;;13.40;99.90;;;;;;4889250;29;20049;-62
2023/04/13 12:44:32;;;;;;;18.17;9.00;;;13.30;99.90;;;;;;4882397;29;20218;-62
2023/04/13 12:47:00;;;;;;;10.18;8.60;;;13.30;99.90;;;;;;4888413;29;20088;-64
2023/04/13 12:49:28;;;;;;;14.63;8.43;;;13.20;99.90;;;;;;4892241;29;20080;-65
2023/04/13 12:51:55;;;;;;;13.82;7.63;;;13.20;99.90;;;;;;4891940;29;20048;-62